createdAt,value
2022-12-12T00:01:22.164Z,-1.04
2022-12-12T00:03:49.977Z,-1.08
2022-12-12T00:06:17.907Z,-1.36
2022-12-12T00:08:45.410Z,-1.24
2022-12-12T00:11:13.440Z,-0.74
2022-12-12T00:13:40.981Z,-0.69
2022-12-12T00:16:09.423Z,-1.17
2022-12-12T00:18:37.742Z,-1.06
2022-12-12T00:21:16.286Z,-2.00
2022-12-12T00:23:44.361Z,-1.48
2022-12-12T00:26:23.849Z,-1.17
2022-12-12T00:28:51.581Z,-1.28
2022-12-12T00:31:19.177Z,-1.11
2022-12-12T00:33:48.956Z,-1.04
2022-12-12T00:36:18.960Z,-1.21
2022-12-12T00:38:46.390Z,-0.84
2022-12-12T00:41:13.737Z,-1.34
2022-12-12T00:43:41.618Z,-1.39
2022-12-12T00:46:09.327Z,-1.76
2022-12-12T00:48:36.736Z,-1.55
2022-12-12T00:51:10.120Z,-1.19
2022-12-12T00:53:38.419Z,-1.14
2022-12-12T00:56:06.478Z,-1.23
2022-12-12T00:58:34.187Z,-1.21
2022-12-12T01:01:06.442Z,-1.60
2022-12-12T01:03:35.374Z,-1.05
2022-12-12T01:06:03.129Z,-0.90
2022-12-12T01:08:30.507Z,-1.27
2022-12-12T01:10:58.165Z,-1.07
2022-12-12T01:13:26.221Z,-1.59
2022-12-12T01:15:53.686Z,-1.67
2022-12-12T01:18:21.387Z,-1.72
2022-12-12T01:20:48.714Z,-1.48
2022-12-12T01:23:16.268Z,-1.47
2022-12-12T01:25:43.964Z,-1.19
2022-12-12T01:28:11.457Z,-1.01
2022-12-12T01:30:38.897Z,-1.29
2022-12-12T01:33:06.821Z,-1.37
2022-12-12T01:35:34.553Z,-1.52
2022-12-12T01:38:01.930Z,-1.37
2022-12-12T01:40:31.345Z,-1.89
2022-12-12T01:42:59.291Z,-1.37
2022-12-12T01:45:57.679Z,-1.14
2022-12-12T01:48:28.296Z,-1.47
2022-12-12T01:50:56.662Z,-1.08
2022-12-12T01:53:25.791Z,-1.22
2022-12-12T01:55:53.952Z,-1.40
2022-12-12T01:58:21.305Z,-1.13
2022-12-12T02:00:48.681Z,-1.58
2022-12-12T02:03:16.319Z,-1.82
2022-12-12T02:05:48.036Z,-1.80
2022-12-12T02:08:16.357Z,-1.45
2022-12-12T02:10:44.823Z,-1.58
2022-12-12T02:13:16.382Z,-1.59
2022-12-12T02:15:54.116Z,-1.44
2022-12-12T02:18:45.269Z,-1.29
2022-12-12T02:21:50.407Z,-1.65
2022-12-12T02:24:29.797Z,-2.21
2022-12-12T02:26:57.859Z,-2.07
2022-12-12T02:30:02.119Z,-1.71
2022-12-12T02:32:44.762Z,-2.19
2022-12-12T02:35:24.488Z,-1.80
2022-12-12T02:38:30.687Z,-1.66
2022-12-12T02:41:07.097Z,-1.10
2022-12-12T02:44:08.207Z,-1.73
2022-12-12T02:46:44.045Z,-1.51
2022-12-12T02:49:17.802Z,-1.32
2022-12-12T02:51:46.101Z,-1.38
2022-12-12T02:54:16.411Z,-1.14
2022-12-12T02:56:43.909Z,-1.34
2022-12-12T02:59:18.836Z,-1.33
2022-12-12T03:01:52.510Z,-1.22
2022-12-12T03:05:05.863Z,-1.37
2022-12-12T03:07:58.150Z,-1.45
2022-12-12T03:10:52.535Z,-1.33
2022-12-12T03:13:56.823Z,-1.41
2022-12-12T03:16:35.495Z,-1.37
2022-12-12T03:19:27.164Z,-1.16
2022-12-12T03:22:05.528Z,-1.08
2022-12-12T03:24:46.688Z,-0.93
2022-12-12T03:27:17.848Z,-1.11
2022-12-12T03:29:57.151Z,-1.14
2022-12-12T03:32:30.947Z,-1.13
2022-12-12T03:35:13.049Z,-1.08
2022-12-12T03:37:49.272Z,-1.16
2022-12-12T03:40:24.339Z,-1.33
2022-12-12T03:43:09.397Z,-1.09
2022-12-12T03:45:55.718Z,-1.00
2022-12-12T03:48:31.616Z,-1.05
2022-12-12T03:51:11.225Z,-0.76
2022-12-12T03:53:59.528Z,-0.56
2022-12-12T03:56:35.034Z,-0.84
2022-12-12T03:59:12.716Z,-0.73
2022-12-12T04:02:04.714Z,-0.80
2022-12-12T04:05:01.455Z,-0.97
2022-12-12T04:07:45.122Z,-0.66
2022-12-12T04:10:31.473Z,-0.29
2022-12-12T04:13:13.554Z,-0.87
2022-12-12T04:15:41.349Z,-0.80
2022-12-12T04:18:14.796Z,-0.96
2022-12-12T04:21:09.853Z,-0.71
2022-12-12T04:23:57.900Z,-0.72
2022-12-12T04:26:42.390Z,-1.15
2022-12-12T04:29:18.857Z,-0.79
2022-12-12T04:32:04.660Z,-0.45
2022-12-12T04:34:52.603Z,-0.96
2022-12-12T04:37:23.826Z,-0.64
2022-12-12T04:39:53.321Z,-1.07
2022-12-12T04:42:23.190Z,-0.46
2022-12-12T04:44:52.910Z,-0.49
2022-12-12T04:47:20.810Z,-0.84
2022-12-12T04:49:50.092Z,-1.21
2022-12-12T04:52:18.803Z,-1.00
2022-12-12T04:54:51.399Z,-0.68
2022-12-12T04:57:28.782Z,-0.66
2022-12-12T04:59:56.597Z,-0.30
2022-12-12T05:02:45.817Z,-0.59
2022-12-12T05:05:19.842Z,-0.52
2022-12-12T05:07:52.810Z,-1.21
2022-12-12T05:10:20.542Z,-0.98
2022-12-12T05:12:50.370Z,-0.93
2022-12-12T05:15:19.794Z,-0.93
2022-12-12T05:17:50.557Z,-1.34
2022-12-12T05:20:18.123Z,-0.91
2022-12-12T05:22:45.467Z,-1.11
2022-12-12T05:25:13.929Z,-1.33
2022-12-12T05:27:41.560Z,-1.22
2022-12-12T05:30:09.971Z,-1.25
2022-12-12T05:32:37.618Z,-1.12
2022-12-12T05:35:06.416Z,-1.00
2022-12-12T05:37:33.792Z,-1.09
2022-12-12T05:40:01.679Z,-1.22
2022-12-12T05:42:30.188Z,-1.05
2022-12-12T05:44:57.677Z,-1.30
2022-12-12T05:47:25.329Z,-1.19
2022-12-12T05:49:53.021Z,-1.48
2022-12-12T05:52:20.432Z,-1.70
2022-12-12T05:54:48.056Z,-1.90
2022-12-12T05:57:17.256Z,-1.59
2022-12-12T05:59:45.755Z,-1.28
2022-12-12T06:02:14.701Z,-0.98
2022-12-12T06:04:42.541Z,-1.19
2022-12-12T06:07:09.903Z,-1.35
2022-12-12T06:09:37.336Z,-1.32
2022-12-12T06:12:05.262Z,-1.54
2022-12-12T06:14:33.200Z,-1.62
2022-12-12T06:17:00.621Z,-1.52
2022-12-12T06:19:28.279Z,-1.24
2022-12-12T06:21:55.697Z,-0.94
2022-12-12T06:24:23.060Z,-0.96
2022-12-12T06:26:50.991Z,-0.86
2022-12-12T06:29:18.532Z,-0.85
2022-12-12T06:31:45.883Z,-0.76
2022-12-12T06:34:13.527Z,-1.02
2022-12-12T06:36:41.217Z,-1.62
2022-12-12T06:39:09.650Z,-1.43
2022-12-12T06:41:37.506Z,-1.47
2022-12-12T06:44:05.038Z,-0.97
2022-12-12T06:46:32.665Z,-1.33
2022-12-12T06:49:00.571Z,-1.04
2022-12-12T06:51:31.952Z,-1.07
2022-12-12T06:53:59.592Z,-1.15
2022-12-12T06:56:27.417Z,-0.87
2022-12-12T06:58:55.321Z,-0.99
2022-12-12T07:01:23.681Z,-1.08
2022-12-12T07:03:52.134Z,-0.89
2022-12-12T07:06:21.517Z,-0.81
2022-12-12T07:08:49.390Z,-1.19
2022-12-12T07:11:19.810Z,-0.94
2022-12-12T07:13:48.396Z,-1.52
2022-12-12T07:16:16.452Z,-1.03
2022-12-12T07:18:43.922Z,-1.15
2022-12-12T07:21:13.749Z,-1.11
2022-12-12T07:23:41.707Z,-0.89
2022-12-12T07:26:13.267Z,-1.52
2022-12-12T07:28:41.731Z,-1.32
2022-12-12T07:31:12.867Z,-1.01
2022-12-12T07:33:44.141Z,-0.99
2022-12-12T07:36:13.164Z,-0.84
2022-12-12T07:38:41.253Z,-1.37
2022-12-12T07:41:11.624Z,-0.86
2022-12-12T07:43:43.893Z,-0.96
2022-12-12T07:46:16.110Z,-0.76
2022-12-12T07:48:43.990Z,-0.22
2022-12-12T07:51:12.434Z,-0.12
2022-12-12T07:53:39.913Z,-0.24
2022-12-12T07:56:09.061Z,0.11
2022-12-12T07:58:37.337Z,-0.21
2022-12-12T08:01:17.183Z,-0.17
2022-12-12T08:03:46.182Z,-0.23
2022-12-12T08:06:14.019Z,-0.10
2022-12-12T08:08:42.001Z,0.16
2022-12-12T08:11:11.473Z,-0.29
2022-12-12T08:13:39.770Z,-0.37
2022-12-12T08:16:13.333Z,0.05
2022-12-12T08:18:41.086Z,0.44
2022-12-12T08:21:10.780Z,0.58
2022-12-12T08:23:38.923Z,0.72
2022-12-12T08:26:09.453Z,1.31
2022-12-12T08:28:37.153Z,0.77
2022-12-12T08:31:04.867Z,1.76
2022-12-12T08:33:32.535Z,2.05
2022-12-12T08:36:00.242Z,1.30
2022-12-12T08:38:28.966Z,1.32
2022-12-12T08:40:56.594Z,1.62
2022-12-12T08:43:23.950Z,1.61
2022-12-12T08:45:51.295Z,2.17
2022-12-12T08:48:18.913Z,2.68
2022-12-12T08:50:46.268Z,3.02
2022-12-12T08:53:13.680Z,3.27
2022-12-12T08:55:41.289Z,3.24
2022-12-12T08:58:08.680Z,2.82
2022-12-12T09:00:36.584Z,3.57
2022-12-12T09:03:04.530Z,3.83
2022-12-12T09:05:31.968Z,4.02
2022-12-12T09:07:59.756Z,3.56
2022-12-12T09:10:28.184Z,2.78
2022-12-12T09:12:55.771Z,3.03
2022-12-12T09:15:23.123Z,3.15
2022-12-12T09:17:50.780Z,2.88
2022-12-12T09:20:18.267Z,3.14
2022-12-12T09:22:45.896Z,2.69
2022-12-12T09:25:13.943Z,2.13
2022-12-12T09:27:41.472Z,1.81
2022-12-12T09:30:09.748Z,1.46
2022-12-12T09:32:37.851Z,1.49
2022-12-12T09:35:05.825Z,1.90
2022-12-12T09:37:33.732Z,1.87
2022-12-12T09:40:01.770Z,1.62
2022-12-12T09:42:31.776Z,1.81
2022-12-12T09:45:03.895Z,1.75
2022-12-12T09:47:45.004Z,1.95
2022-12-12T09:50:37.886Z,1.38
2022-12-12T09:53:12.539Z,1.46
2022-12-12T09:55:55.201Z,1.26
2022-12-12T09:58:26.770Z,1.14
2022-12-12T10:01:00.447Z,1.76
2022-12-12T10:03:30.504Z,1.54
2022-12-12T10:06:35.865Z,1.50
2022-12-12T10:09:31.556Z,0.94
2022-12-12T10:12:04.901Z,1.84
2022-12-12T10:14:39.565Z,1.81
2022-12-12T10:17:15.889Z,1.75
2022-12-12T10:19:53.623Z,1.80
2022-12-12T10:22:42.193Z,1.84
2022-12-12T10:25:21.256Z,1.61
2022-12-12T10:28:08.728Z,2.49
2022-12-12T10:31:01.907Z,2.55
2022-12-12T10:33:54.509Z,2.40
2022-12-12T10:36:40.519Z,2.21
2022-12-12T10:39:44.379Z,2.00
2022-12-12T10:42:12.666Z,2.05
2022-12-12T10:44:54.557Z,1.57
2022-12-12T10:47:22.280Z,1.21
2022-12-12T10:49:52.846Z,1.70
2022-12-12T10:52:22.067Z,1.16
2022-12-12T10:54:58.443Z,0.90
2022-12-12T10:57:34.379Z,1.05
2022-12-12T11:00:17.383Z,0.86
2022-12-12T11:02:45.096Z,1.13
2022-12-12T11:05:23.090Z,1.22
2022-12-12T11:08:00.649Z,1.35
2022-12-12T11:10:34.547Z,1.42
2022-12-12T11:13:11.258Z,1.42
2022-12-12T11:15:40.104Z,1.74
2022-12-12T11:18:15.153Z,1.23
2022-12-12T11:20:50.636Z,1.53
2022-12-12T11:23:26.880Z,1.98
2022-12-12T11:25:57.429Z,1.55
2022-12-12T11:28:27.578Z,1.49
2022-12-12T11:30:56.176Z,1.40
2022-12-12T11:33:32.682Z,1.38
2022-12-12T11:36:02.014Z,1.70
2022-12-12T11:38:41.065Z,1.66
2022-12-12T11:41:10.550Z,1.84
2022-12-12T11:43:50.100Z,1.76
2022-12-12T11:46:19.882Z,2.23
2022-12-12T11:48:56.395Z,2.23
2022-12-12T11:51:33.611Z,2.73
2022-12-12T11:54:02.830Z,2.58
2022-12-12T11:57:02.247Z,2.52
2022-12-12T12:00:00.357Z,2.03
2022-12-12T12:02:49.270Z,1.64
2022-12-12T12:05:41.577Z,1.84
2022-12-12T12:08:28.936Z,1.30
2022-12-12T12:11:25.061Z,1.03
2022-12-12T12:14:30.077Z,0.62
2022-12-12T12:17:02.981Z,1.00
2022-12-12T12:19:48.704Z,0.29
2022-12-12T12:22:35.669Z,1.02
2022-12-12T12:25:16.113Z,0.73
2022-12-12T12:27:53.615Z,0.85
2022-12-12T12:30:25.834Z,0.75
2022-12-12T12:33:12.007Z,0.65
2022-12-12T12:35:52.860Z,0.22
2022-12-12T12:38:36.105Z,0.39
2022-12-12T12:41:16.802Z,0.45
2022-12-12T12:44:03.416Z,0.32
2022-12-12T12:46:36.372Z,0.57
2022-12-12T12:49:11.514Z,0.74
2022-12-12T12:51:46.995Z,0.68
2022-12-12T12:54:25.947Z,0.65
2022-12-12T12:57:01.104Z,0.11
2022-12-12T12:59:34.173Z,0.48
2022-12-12T13:02:10.848Z,0.37
2022-12-12T13:04:45.568Z,0.09
2022-12-12T13:07:45.424Z,0.12
2022-12-12T13:10:25.894Z,0.23
2022-12-12T13:13:01.707Z,0.62
2022-12-12T13:15:33.558Z,0.48
2022-12-12T13:18:21.538Z,0.24
2022-12-12T13:21:21.562Z,0.23
2022-12-12T13:24:15.288Z,0.33
2022-12-12T13:26:52.617Z,0.19
2022-12-12T13:29:53.746Z,0.65
2022-12-12T13:32:33.507Z,0.33
2022-12-12T13:35:05.110Z,0.52
2022-12-12T13:37:36.500Z,0.39
2022-12-12T13:40:06.812Z,0.66
2022-12-12T13:42:55.467Z,0.83
2022-12-12T13:45:31.893Z,0.54
2022-12-12T13:48:02.170Z,0.71
2022-12-12T13:50:29.996Z,0.51
2022-12-12T13:53:17.566Z,0.71
2022-12-12T13:55:45.284Z,0.07
2022-12-12T13:58:33.639Z,-0.02
2022-12-12T14:01:40.442Z,0.25
2022-12-12T14:04:39.730Z,0.05
2022-12-12T14:07:16.915Z,0.05
2022-12-12T14:09:50.109Z,-0.02
2022-12-12T14:12:30.654Z,0.21
2022-12-12T14:15:02.643Z,0.20
2022-12-12T14:17:38.330Z,-0.02
2022-12-12T14:20:24.414Z,-0.22
2022-12-12T14:22:51.666Z,0.04
2022-12-12T14:25:21.049Z,-0.47
2022-12-12T14:27:49.109Z,-0.58
2022-12-12T14:30:18.276Z,-0.31
2022-12-12T14:33:05.964Z,-0.54
2022-12-12T14:35:54.322Z,-0.45
2022-12-12T14:38:34.845Z,-0.54
2022-12-12T14:41:04.994Z,-0.22
2022-12-12T14:43:37.470Z,-0.25
2022-12-12T14:46:05.384Z,0.04
2022-12-12T14:48:33.904Z,-0.36
2022-12-12T14:51:10.281Z,-0.01
2022-12-12T14:53:37.805Z,-0.28
2022-12-12T14:56:14.766Z,0.04
2022-12-12T14:58:46.145Z,-0.14
2022-12-12T15:01:15.683Z,-0.51
2022-12-12T15:03:46.796Z,-0.44
2022-12-12T15:06:26.388Z,-0.43
2022-12-12T15:08:55.805Z,-0.40
2022-12-12T15:11:26.438Z,-0.59
2022-12-12T15:13:57.954Z,-0.56
2022-12-12T15:16:27.498Z,-0.13
2022-12-12T15:18:56.204Z,-0.20
2022-12-12T15:21:23.849Z,-0.26
2022-12-12T15:23:51.512Z,-0.03
2022-12-12T15:26:22.954Z,-0.17
2022-12-12T15:28:50.366Z,-0.32
2022-12-12T15:31:19.256Z,-0.19
2022-12-12T15:33:47.697Z,0.17
2022-12-12T15:36:26.467Z,0.04
2022-12-12T15:39:16.136Z,0.11
2022-12-12T15:41:44.226Z,0.02
2022-12-12T15:44:18.451Z,0.18
2022-12-12T15:46:47.809Z,0.50
2022-12-12T15:49:35.131Z,0.34
2022-12-12T15:52:19.849Z,0.41
2022-12-12T15:54:48.499Z,0.47
2022-12-12T15:57:18.047Z,0.70
2022-12-12T15:59:45.930Z,0.36
2022-12-12T16:02:27.159Z,0.48
2022-12-12T16:05:17.816Z,0.27
2022-12-12T16:07:45.835Z,0.47
2022-12-12T16:10:13.558Z,-0.05
2022-12-12T16:13:02.451Z,0.27
2022-12-12T16:15:35.662Z,0.33
2022-12-12T16:18:16.771Z,0.22
2022-12-12T16:20:55.467Z,0.73
2022-12-12T16:23:30.131Z,0.39
2022-12-12T16:25:58.321Z,0.40
2022-12-12T16:28:27.825Z,-0.12
2022-12-12T16:31:00.996Z,0.08
2022-12-12T16:33:36.073Z,-0.05
2022-12-12T16:36:04.931Z,-0.01
2022-12-12T16:38:33.106Z,-0.17
2022-12-12T16:41:09.165Z,-0.03
2022-12-12T16:43:38.452Z,0.02
2022-12-12T16:46:06.379Z,-0.07
2022-12-12T16:48:35.993Z,-0.04
2022-12-12T16:51:08.757Z,0.22
2022-12-12T16:53:37.024Z,0.10
2022-12-12T16:56:05.098Z,0.30
2022-12-12T16:58:34.045Z,0.27
2022-12-12T17:01:02.808Z,0.69
2022-12-12T17:03:32.828Z,0.46
2022-12-12T17:06:00.261Z,0.44
2022-12-12T17:08:27.908Z,0.31
2022-12-12T17:11:10.132Z,0.58
2022-12-12T17:13:48.073Z,0.30
2022-12-12T17:16:15.901Z,-0.03
2022-12-12T17:18:43.779Z,0.20
2022-12-12T17:21:11.190Z,0.50
2022-12-12T17:23:40.245Z,0.67
2022-12-12T17:26:07.652Z,0.30
2022-12-12T17:28:36.232Z,0.15
2022-12-12T17:31:08.561Z,0.02
2022-12-12T17:33:46.197Z,-0.01
2022-12-12T17:36:19.784Z,-0.13
2022-12-12T17:38:47.976Z,0.38
2022-12-12T17:41:15.632Z,0.28
2022-12-12T17:43:43.243Z,0.21
2022-12-12T17:46:15.747Z,-0.02
2022-12-12T17:48:47.463Z,0.47
2022-12-12T17:51:18.257Z,0.13
2022-12-12T17:53:46.342Z,0.32
2022-12-12T17:56:16.824Z,0.32
2022-12-12T17:58:46.530Z,-0.25
2022-12-12T18:01:16.169Z,0.01
2022-12-12T18:03:44.875Z,0.13
2022-12-12T18:06:13.141Z,0.03
2022-12-12T18:08:41.389Z,0.07
2022-12-12T18:11:11.380Z,-0.28
2022-12-12T18:13:40.160Z,0.16
2022-12-12T18:16:09.281Z,-0.42
2022-12-12T18:18:37.516Z,-0.57
2022-12-12T18:21:07.197Z,0.12
2022-12-12T18:23:35.433Z,-0.13
2022-12-12T18:26:09.517Z,0.29
2022-12-12T18:28:38.132Z,0.73
2022-12-12T18:31:07.330Z,0.13
2022-12-12T18:33:36.320Z,0.09
2022-12-12T18:36:06.865Z,1.08
2022-12-12T18:38:36.298Z,0.55
2022-12-12T18:41:06.268Z,0.19
2022-12-12T18:43:34.583Z,0.59
2022-12-12T18:46:14.128Z,1.18
2022-12-12T18:48:43.710Z,0.68
2022-12-12T18:51:24.408Z,1.01
2022-12-12T18:53:53.801Z,0.89
2022-12-12T18:56:28.012Z,0.96
2022-12-12T18:58:57.666Z,0.40
2022-12-12T19:01:31.081Z,0.55
2022-12-12T19:04:07.364Z,0.38
2022-12-12T19:06:42.094Z,-0.08
2022-12-12T19:09:19.054Z,0.28
2022-12-12T19:11:52.410Z,0.23
2022-12-12T19:14:22.699Z,0.39
2022-12-12T19:16:51.641Z,0.56
2022-12-12T19:19:20.327Z,0.25
2022-12-12T19:21:48.937Z,0.30
2022-12-12T19:24:16.948Z,0.58
2022-12-12T19:26:45.480Z,0.66
2022-12-12T19:29:18.016Z,0.48
2022-12-12T19:31:47.660Z,0.51
2022-12-12T19:37:02.616Z,-0.13
2022-12-12T19:39:32.185Z,-0.85
2022-12-12T19:42:01.385Z,-0.67
2022-12-12T19:44:32.839Z,-0.18
2022-12-12T19:47:02.211Z,0.06
2022-12-12T19:49:31.468Z,0.11
2022-12-12T19:52:00.067Z,0.07
2022-12-12T19:54:28.743Z,0.21
2022-12-12T19:56:59.913Z,0.09
2022-12-12T19:59:28.514Z,0.23
2022-12-12T20:02:00.570Z,0.03
2022-12-12T20:04:31.232Z,-0.14
2022-12-12T20:06:59.787Z,-0.28
2022-12-12T20:09:32.507Z,-0.07
2022-12-12T20:12:03.271Z,0.09
2022-12-12T20:14:36.183Z,0.35
2022-12-12T20:17:05.307Z,0.25
2022-12-12T20:19:33.435Z,0.27
2022-12-12T20:22:03.131Z,0.33
2022-12-12T20:24:34.999Z,0.20
2022-12-12T20:27:04.868Z,0.05
2022-12-12T20:29:33.881Z,0.20
2022-12-12T20:32:05.213Z,0.17
2022-12-12T20:34:33.841Z,0.46
2022-12-12T20:37:03.063Z,0.27
2022-12-12T20:39:32.722Z,0.11
2022-12-12T20:42:01.286Z,0.34
2022-12-12T20:44:30.444Z,-0.04
2022-12-12T20:47:00.450Z,0.21
2022-12-12T20:49:30.381Z,0.49
2022-12-12T20:51:59.567Z,0.16
2022-12-12T20:54:28.985Z,0.02
2022-12-12T20:56:58.733Z,-0.10
2022-12-12T20:59:27.061Z,0.28
2022-12-12T21:01:55.520Z,0.31
2022-12-12T21:04:25.389Z,0.16
2022-12-12T21:06:53.228Z,0.43
2022-12-12T21:09:25.842Z,0.23
2022-12-12T21:11:56.308Z,0.40
2022-12-12T21:14:24.837Z,0.16
2022-12-12T21:16:52.887Z,-0.05
2022-12-12T21:19:22.055Z,0.09
2022-12-12T21:21:49.746Z,-0.02
2022-12-12T21:24:18.020Z,0.43
2022-12-12T21:26:46.711Z,0.27
2022-12-12T21:29:15.457Z,0.22
2022-12-12T21:31:50.227Z,-0.18
2022-12-12T21:34:21.195Z,0.21
2022-12-12T21:36:53.281Z,0.53
2022-12-12T21:39:23.152Z,0.02
2022-12-12T21:41:51.475Z,-0.12
2022-12-12T21:44:20.222Z,0.12
2022-12-12T21:46:48.401Z,0.11
2022-12-12T21:49:28.434Z,0.31
2022-12-12T21:52:05.207Z,-0.50
2022-12-12T21:54:32.849Z,-0.15
2022-12-12T21:57:01.217Z,0.09
2022-12-12T21:59:29.175Z,-0.29
2022-12-12T22:01:58.576Z,-0.32
2022-12-12T22:04:26.605Z,0.20
2022-12-12T22:06:54.257Z,-0.32
2022-12-12T22:09:21.594Z,-0.47
2022-12-12T22:11:49.682Z,-0.29
2022-12-12T22:14:18.754Z,-0.40
2022-12-12T22:16:46.438Z,-0.87
2022-12-12T22:19:15.757Z,-0.64
2022-12-12T22:21:48.487Z,-0.45
2022-12-12T22:24:17.284Z,-0.78
2022-12-12T22:26:49.904Z,-0.69
2022-12-12T22:29:20.087Z,-0.49
2022-12-12T22:31:50.236Z,-0.22
2022-12-12T22:34:23.552Z,-0.15
2022-12-12T22:36:51.913Z,-0.94
2022-12-12T22:39:24.525Z,-0.67
2022-12-12T22:41:53.118Z,-0.77
2022-12-12T22:44:22.611Z,-1.05
2022-12-12T22:46:52.069Z,-1.21
2022-12-12T22:49:22.557Z,-1.30
2022-12-12T22:51:50.278Z,-0.82
2022-12-12T22:54:18.184Z,-0.70
2022-12-12T22:56:45.537Z,-0.78
2022-12-12T22:59:13.634Z,-1.10
2022-12-12T23:01:41.545Z,-0.94
2022-12-12T23:04:14.126Z,-0.90
2022-12-12T23:06:42.892Z,-0.95
2022-12-12T23:09:22.247Z,-0.96
2022-12-12T23:11:49.935Z,-0.79
2022-12-12T23:14:21.559Z,-1.67
2022-12-12T23:16:50.293Z,-1.65
2022-12-12T23:19:20.175Z,-1.43
2022-12-12T23:21:47.872Z,-1.31
2022-12-12T23:24:15.621Z,-1.72
2022-12-12T23:26:43.349Z,-0.89
2022-12-12T23:29:16.074Z,-1.74
2022-12-12T23:31:44.451Z,-1.29
2022-12-12T23:34:20.532Z,-1.67
2022-12-12T23:36:49.285Z,-0.94
2022-12-12T23:39:17.175Z,-1.27
2022-12-12T23:41:44.799Z,-1.56
2022-12-12T23:44:13.835Z,-1.83
2022-12-12T23:46:41.509Z,-1.36
2022-12-12T23:49:11.886Z,-1.07
2022-12-12T23:51:44.095Z,-1.01
2022-12-12T23:54:14.419Z,-1.45
2022-12-12T23:56:42.352Z,-1.41
2022-12-12T23:59:15.520Z,-1.09
